Time;durP1;ratioP1;P1;durP2;ratioP2;P2;SDS_P1;SDS_P2;PMS_P1;PMS_P2;Temp;Humidity;BMP_temperature;BMP_pressure;BME280_temperature;BME280_humidity;BME280_pressure;Samples;Min_cycle;Max_cycle;Signal;HPM_P1;HPM_P2
2021/11/25 00:01:23;;;;;;;93.78;47.80;;;1.50;99.90;;;;;;5018375;28;20191;-68
2021/11/25 00:03:54;;;;;;;96.53;46.72;;;1.50;99.90;;;;;;5016517;28;20179;-68
2021/11/25 00:06:21;;;;;;;86.68;47.65;;;1.50;99.90;;;;;;5016747;28;20253;-70
2021/11/25 00:08:47;;;;;;;92.47;45.75;;;1.50;99.90;;;;;;5016366;28;20229;-68
2021/11/25 00:11:14;;;;;;;82.37;47.50;;;1.50;99.90;;;;;;5016341;28;20187;-70
2021/11/25 00:13:41;;;;;;;87.38;46.67;;;1.50;99.90;;;;;;5016269;28;20451;-70
2021/11/25 00:16:09;;;;;;;82.75;45.70;;;1.60;99.90;;;;;;5016339;28;20609;-70
2021/11/25 00:21:19;;;;;;;84.10;46.28;;;1.60;99.90;;;;;;5042469;23;20249;-68
2021/11/25 00:23:45;;;;;;;81.07;45.00;;;1.60;99.90;;;;;;5019200;28;20240;-69
2021/11/25 00:26:11;;;;;;;83.35;46.42;;;1.70;99.90;;;;;;5016100;28;20227;-69
2021/11/25 00:28:37;;;;;;;77.63;45.22;;;1.70;99.90;;;;;;5000196;28;20660;-70
2021/11/25 00:31:04;;;;;;;74.63;43.00;;;1.70;99.90;;;;;;5015670;28;20199;-70
2021/11/25 00:33:31;;;;;;;83.13;45.05;;;1.80;99.90;;;;;;5015905;28;20739;-70
2021/11/25 00:35:58;;;;;;;74.90;41.83;;;1.80;99.90;;;;;;4999171;28;20688;-70
2021/11/25 00:38:29;;;;;;;75.60;42.42;;;1.90;99.90;;;;;;5016358;28;20266;-70
2021/11/25 00:41:00;;;;;;;70.80;42.03;;;1.90;99.90;;;;;;4999187;28;20260;-68
2021/11/25 00:43:26;;;;;;;74.45;39.58;;;1.90;99.90;;;;;;5016086;28;20229;-70
2021/11/25 00:45:57;;;;;;;62.70;39.45;;;2.00;99.90;;;;;;5015735;28;20211;-68
2021/11/25 00:48:25;;;;;;;68.72;39.50;;;2.00;99.90;;;;;;5016181;28;20183;-70
2021/11/25 00:50:52;;;;;;;62.08;37.00;;;2.00;99.90;;;;;;5015721;28;20641;-70
2021/11/25 00:53:18;;;;;;;74.30;38.78;;;2.00;99.90;;;;;;5015948;28;20672;-70
2021/11/25 00:55:55;;;;;;;78.30;41.30;;;2.10;99.90;;;;;;5015036;28;20207;-68
2021/11/25 00:58:29;;;;;;;66.03;37.83;;;2.10;99.90;;;;;;5016772;28;20160;-69
2021/11/25 01:00:57;;;;;;;70.60;39.50;;;2.20;99.90;;;;;;4998923;28;20207;-70
2021/11/25 01:03:26;;;;;;;66.32;37.28;;;2.20;99.90;;;;;;5014801;28;20179;-70
2021/11/25 01:05:53;;;;;;;64.72;36.00;;;2.20;99.90;;;;;;5015477;28;20546;-68
2021/11/25 01:08:20;;;;;;;71.95;37.72;;;2.30;99.90;;;;;;5015736;28;20652;-70
2021/11/25 01:10:48;;;;;;;74.93;40.45;;;2.30;99.90;;;;;;5015200;28;20707;-68
2021/11/25 01:13:14;;;;;;;64.88;35.88;;;2.30;99.90;;;;;;4998711;28;20211;-70
2021/11/25 01:15:44;;;;;;;69.93;37.35;;;2.40;99.90;;;;;;5014813;28;20215;-70
2021/11/25 01:18:14;;;;;;;76.28;38.33;;;2.40;99.90;;;;;;5015161;28;20671;-68
2021/11/25 01:20:45;;;;;;;72.50;37.65;;;2.40;99.90;;;;;;5009385;28;20285;-68
2021/11/25 01:23:16;;;;;;;67.43;38.00;;;2.40;99.90;;;;;;5016306;28;20187;-67
2021/11/25 01:25:42;;;;;;;67.40;39.58;;;2.40;99.90;;;;;;5031684;28;20253;-70
2021/11/25 01:28:12;;;;;;;68.35;40.65;;;2.40;99.90;;;;;;5011568;28;20180;-70
2021/11/25 01:30:47;;;;;;;67.68;38.88;;;2.50;99.90;;;;;;5011864;28;20296;-68
2021/11/25 01:33:17;;;;;;;72.38;40.95;;;2.50;99.90;;;;;;5024202;28;20211;-68
2021/11/25 01:35:46;;;;;;;69.40;41.40;;;2.50;99.90;;;;;;5014600;28;20584;-70
2021/11/25 01:38:16;;;;;;;73.68;40.38;;;2.50;99.90;;;;;;5014832;28;20235;-68
2021/11/25 01:40:47;;;;;;;68.28;39.55;;;2.60;99.90;;;;;;5014568;28;20580;-68
2021/11/25 01:43:14;;;;;;;78.10;40.92;;;2.60;99.90;;;;;;5016250;28;20166;-70
2021/11/25 01:45:41;;;;;;;64.65;39.70;;;2.60;99.90;;;;;;5014715;28;20286;-70
2021/11/25 01:48:08;;;;;;;74.28;41.85;;;2.70;99.90;;;;;;5014719;28;20268;-68
2021/11/25 01:50:39;;;;;;;105.70;51.22;;;2.70;99.90;;;;;;5014410;28;20250;-70
2021/11/25 01:53:08;;;;;;;115.85;54.05;;;2.70;99.90;;;;;;5014410;28;20215;-70
2021/11/25 01:55:39;;;;;;;118.68;51.83;;;2.70;99.90;;;;;;5014456;28;20254;-68
2021/11/25 01:58:10;;;;;;;108.68;53.08;;;2.80;99.90;;;;;;5014345;28;20179;-68
2021/11/25 02:00:41;;;;;;;124.20;52.15;;;2.80;99.90;;;;;;5014567;28;20302;-70
2021/11/25 02:03:09;;;;;;;113.25;55.42;;;2.80;99.90;;;;;;5014416;28;20217;-70
2021/11/25 02:05:40;;;;;;;94.30;49.13;;;2.90;99.90;;;;;;5013615;28;20211;-68
2021/11/25 02:08:09;;;;;;;92.28;49.30;;;2.90;99.90;;;;;;5014318;28;20178;-70
2021/11/25 02:10:38;;;;;;;85.53;45.28;;;2.90;99.90;;;;;;5013958;28;20580;-70
2021/11/25 02:13:08;;;;;;;85.90;45.00;;;2.90;99.90;;;;;;5014291;28;20226;-70
2021/11/25 02:15:39;;;;;;;77.10;43.17;;;3.00;99.90;;;;;;5013318;28;20211;-68
2021/11/25 02:18:12;;;;;;;79.78;43.40;;;3.00;99.90;;;;;;5014128;28;20179;-68
2021/11/25 02:20:45;;;;;;;76.57;44.85;;;3.00;99.90;;;;;;5027752;28;20230;-68
2021/11/25 02:23:18;;;;;;;80.03;43.30;;;3.00;99.90;;;;;;5013611;28;20193;-69
2021/11/25 02:25:45;;;;;;;75.15;41.92;;;3.00;99.90;;;;;;5030676;28;20675;-71
2021/11/25 02:28:13;;;;;;;75.32;41.95;;;3.00;99.90;;;;;;5033566;28;20178;-70
2021/11/25 02:30:48;;;;;;;73.95;41.63;;;3.10;99.90;;;;;;5034856;28;20207;-69
2021/11/25 02:33:15;;;;;;;72.63;41.38;;;3.10;99.90;;;;;;5033431;28;20202;-70
2021/11/25 02:35:56;;;;;;;69.57;40.22;;;3.10;99.90;;;;;;5016878;28;20678;-69
2021/11/25 02:38:24;;;;;;;69.55;40.40;;;3.10;99.90;;;;;;5033206;28;20181;-68
2021/11/25 02:40:54;;;;;;;68.15;38.90;;;3.10;99.90;;;;;;5033384;28;20210;-68
2021/11/25 02:43:26;;;;;;;76.20;41.38;;;3.20;99.90;;;;;;5017073;28;20186;-68
2021/11/25 02:45:58;;;;;;;70.60;40.72;;;3.20;99.90;;;;;;5033474;28;20202;-69
2021/11/25 02:48:43;;;;;;;64.80;38.95;;;3.20;99.90;;;;;;5033132;28;20174;-68
2021/11/25 02:51:14;;;;;;;61.53;38.78;;;3.20;99.90;;;;;;5033231;28;20210;-70
2021/11/25 02:53:40;;;;;;;64.03;38.03;;;3.20;99.90;;;;;;5033126;28;20245;-70
2021/11/25 02:56:09;;;;;;;61.03;38.53;;;3.20;99.90;;;;;;5033179;28;20674;-70
2021/11/25 02:58:45;;;;;;;69.50;37.25;;;3.20;99.90;;;;;;5032971;28;20522;-68
2021/11/25 03:01:14;;;;;;;65.47;38.20;;;3.20;99.90;;;;;;5033080;28;20569;-68
2021/11/25 03:03:40;;;;;;;70.28;39.75;;;3.20;99.90;;;;;;5033560;28;20354;-70
2021/11/25 03:06:08;;;;;;;58.90;36.40;;;3.30;99.90;;;;;;5016473;28;20617;-68
2021/11/25 03:08:40;;;;;;;57.95;35.70;;;3.30;99.90;;;;;;5016025;28;20178;-68
2021/11/25 03:11:12;;;;;;;62.60;36.47;;;3.30;99.90;;;;;;5032244;28;20241;-70
2021/11/25 03:13:41;;;;;;;61.75;35.97;;;3.30;99.90;;;;;;5032622;28;20210;-70
2021/11/25 03:16:21;;;;;;;72.72;37.70;;;3.30;99.90;;;;;;5008213;28;20203;-68
2021/11/25 03:18:50;;;;;;;59.03;36.00;;;3.30;99.90;;;;;;5032526;28;20244;-70
2021/11/25 03:21:23;;;;;;;58.45;35.78;;;3.30;99.90;;;;;;5032367;28;20249;-71
2021/11/25 03:23:52;;;;;;;57.47;35.90;;;3.30;99.90;;;;;;5032217;28;20266;-68
2021/11/25 03:26:21;;;;;;;56.55;35.50;;;3.30;99.90;;;;;;5033014;28;20182;-70
2021/11/25 03:28:48;;;;;;;66.63;35.50;;;3.30;99.90;;;;;;5032728;28;20178;-70
2021/11/25 03:31:26;;;;;;;57.70;34.15;;;3.40;99.90;;;;;;5032197;28;20170;-70
2021/11/25 03:33:57;;;;;;;55.95;34.97;;;3.40;99.90;;;;;;5032261;28;20233;-68
2021/11/25 03:36:28;;;;;;;54.22;35.47;;;3.40;99.90;;;;;;5032408;28;20186;-71
2021/11/25 03:38:54;;;;;;;56.72;34.30;;;3.40;99.90;;;;;;5032308;28;20588;-72
2021/11/25 03:41:25;;;;;;;58.97;35.00;;;3.50;99.90;;;;;;5032430;28;20224;-68
2021/11/25 03:43:53;;;;;;;55.00;35.55;;;3.50;99.90;;;;;;5032169;28;20174;-69
2021/11/25 03:46:24;;;;;;;53.72;32.40;;;3.40;99.90;;;;;;5032440;28;20662;-68
2021/11/25 03:48:51;;;;;;;52.42;31.33;;;3.40;99.90;;;;;;5032247;28;20228;-67
2021/11/25 03:51:23;;;;;;;48.92;31.55;;;3.40;99.90;;;;;;5032448;28;20175;-69
2021/11/25 03:53:51;;;;;;;54.55;31.77;;;3.40;99.90;;;;;;5016248;28;20222;-70
2021/11/25 03:56:19;;;;;;;55.35;32.92;;;3.40;99.90;;;;;;5032583;28;20399;-68
2021/11/25 03:58:46;;;;;;;55.35;31.67;;;3.40;99.90;;;;;;5032063;28;20186;-70
2021/11/25 04:01:16;;;;;;;54.38;31.25;;;3.40;99.90;;;;;;5032416;28;20183;-69
2021/11/25 04:03:43;;;;;;;52.65;30.70;;;3.40;99.90;;;;;;5015905;28;20182;-70
2021/11/25 04:06:13;;;;;;;46.47;29.30;;;3.40;99.90;;;;;;5032423;28;20537;-68
2021/11/25 04:08:41;;;;;;;50.30;29.63;;;3.40;99.90;;;;;;5032372;28;20178;-70
2021/11/25 04:11:07;;;;;;;48.15;29.30;;;3.40;99.90;;;;;;5014742;28;20691;-71
2021/11/25 04:13:35;;;;;;;47.72;28.80;;;3.40;99.90;;;;;;5032165;28;20218;-70
2021/11/25 04:16:06;;;;;;;46.47;28.45;;;3.30;99.90;;;;;;5015532;28;20695;-68
2021/11/25 04:18:35;;;;;;;45.85;27.45;;;3.40;99.90;;;;;;5032033;28;20213;-70
2021/11/25 04:21:04;;;;;;;45.10;27.27;;;3.40;99.90;;;;;;5031740;28;20242;-68
2021/11/25 04:23:34;;;;;;;45.88;27.80;;;3.50;99.90;;;;;;5031957;28;20596;-68
2021/11/25 04:26:05;;;;;;;51.88;29.98;;;3.50;99.90;;;;;;5015410;28;20268;-70
2021/11/25 04:28:31;;;;;;;41.72;27.95;;;3.60;99.90;;;;;;5015366;28;20686;-69
2021/11/25 04:36:31;;;;;;;47.65;28.17;;;3.80;99.90;;;;;;5033575;28;20655;-67
2021/11/25 04:39:01;;;;;;;46.53;28.23;;;3.80;99.90;;;;;;5032954;28;20659;-68
2021/11/25 04:41:31;;;;;;;50.85;29.15;;;3.90;99.90;;;;;;5035401;28;20185;-70
2021/11/25 04:44:03;;;;;;;73.03;35.08;;;3.90;99.90;;;;;;5035387;28;20174;-70
2021/11/25 04:46:30;;;;;;;76.53;41.13;;;4.00;99.90;;;;;;5035385;28;20643;-69
2021/11/25 04:49:01;;;;;;;75.40;38.22;;;4.00;99.90;;;;;;5035203;28;20183;-70
2021/11/25 04:51:31;;;;;;;71.75;35.20;;;4.10;99.90;;;;;;5035331;28;20178;-68
2021/11/25 04:54:00;;;;;;;48.03;28.80;;;4.10;99.90;;;;;;5034989;28;20240;-68
2021/11/25 04:56:28;;;;;;;46.65;29.00;;;4.10;99.90;;;;;;5035017;28;20179;-69
2021/11/25 04:58:56;;;;;;;48.83;30.23;;;4.10;99.90;;;;;;5036299;28;20189;-70
2021/11/25 05:01:21;;;;;;;48.53;29.48;;;4.10;99.90;;;;;;5035125;28;20175;-69
2021/11/25 05:03:50;;;;;;;52.03;30.87;;;4.20;99.90;;;;;;5034352;28;20182;-69
2021/11/25 05:06:16;;;;;;;46.97;27.98;;;4.20;99.90;;;;;;5034614;28;20420;-70
2021/11/25 05:08:46;;;;;;;43.97;28.10;;;4.20;99.90;;;;;;5035517;28;20297;-68
2021/11/25 05:11:13;;;;;;;42.35;26.63;;;4.20;99.90;;;;;;5034742;28;20268;-68
2021/11/25 05:13:40;;;;;;;45.03;26.73;;;4.30;99.90;;;;;;5034864;28;20294;-70
2021/11/25 05:16:06;;;;;;;48.40;26.75;;;4.30;99.90;;;;;;5034595;28;20238;-70
2021/11/25 05:18:37;;;;;;;45.03;24.88;;;4.30;99.90;;;;;;5034831;28;20221;-68
2021/11/25 05:21:05;;;;;;;43.97;27.17;;;4.30;99.90;;;;;;5035805;28;20244;-68
2021/11/25 05:23:31;;;;;;;42.08;25.67;;;4.40;99.90;;;;;;5035188;28;20178;-71
2021/11/25 05:25:59;;;;;;;41.88;26.48;;;4.40;99.90;;;;;;5034309;28;20206;-68
2021/11/25 05:28:26;;;;;;;41.05;25.80;;;4.50;99.90;;;;;;5034367;28;20628;-68
2021/11/25 05:30:54;;;;;;;47.53;27.77;;;4.50;99.90;;;;;;5034303;28;20217;-71
2021/11/25 05:33:20;;;;;;;44.85;26.58;;;4.50;99.90;;;;;;5034480;28;20733;-71
2021/11/25 05:35:47;;;;;;;39.95;25.90;;;4.60;99.90;;;;;;5034631;28;20198;-70
2021/11/25 05:38:14;;;;;;;48.58;28.67;;;4.60;99.90;;;;;;5034578;28;20175;-70
2021/11/25 05:40:46;;;;;;;58.85;32.15;;;4.70;99.90;;;;;;5034377;28;20672;-70
2021/11/25 05:43:13;;;;;;;83.30;44.85;;;4.70;99.90;;;;;;5030688;28;20278;-70
2021/11/25 05:45:40;;;;;;;68.30;37.00;;;4.80;99.90;;;;;;4996484;28;20203;-69
2021/11/25 05:48:07;;;;;;;48.30;30.33;;;4.80;99.90;;;;;;5013578;28;20175;-70
2021/11/25 05:50:35;;;;;;;48.15;28.33;;;4.80;99.90;;;;;;5013712;28;20286;-67
2021/11/25 05:53:08;;;;;;;46.80;26.00;;;4.90;99.90;;;;;;5013763;28;20257;-67
2021/11/25 05:55:38;;;;;;;39.28;26.23;;;4.90;99.90;;;;;;5013920;28;20211;-67
2021/11/25 05:58:05;;;;;;;36.25;22.90;;;4.90;99.90;;;;;;5002580;28;20270;-70
2021/11/25 06:00:31;;;;;;;43.30;24.92;;;4.90;99.90;;;;;;5022593;28;20210;-69
2021/11/25 06:03:00;;;;;;;40.10;24.83;;;4.90;99.90;;;;;;4997900;28;20179;-67
2021/11/25 06:05:27;;;;;;;43.90;25.35;;;4.90;99.90;;;;;;4995725;28;20573;-68
2021/11/25 11:42:41;;;;;;;36.90;24.40;;;9.00;99.90;;;;;;6183516;22;1603054;-95
2021/11/25 11:45:15;;;;;;;37.42;24.45;;;9.00;99.90;;;;;;6278700;22;20195;-96
2021/11/25 11:47:42;;;;;;;32.97;23.33;;;9.00;99.90;;;;;;6279016;22;20586;-93
2021/11/25 11:50:10;;;;;;;84.93;47.22;;;9.10;99.90;;;;;;6273247;22;20244;-95
2021/11/25 11:52:59;;;;;;;40.60;28.05;;;9.10;99.90;;;;;;6283445;22;20578;-93
2021/11/25 11:55:38;;;;;;;41.05;28.27;;;9.10;99.90;;;;;;6278817;22;20251;-95
2021/11/25 11:58:42;;;;;;;42.22;26.98;;;9.10;99.90;;;;;;6289482;22;20226;-95
2021/11/25 12:01:15;;;;;;;41.72;26.90;;;9.20;99.90;;;;;;6287378;22;20160;-95
2021/11/25 12:03:51;;;;;;;39.10;25.25;;;9.20;99.90;;;;;;6281918;22;20187;-95
2021/11/25 12:06:32;;;;;;;36.05;22.10;;;9.20;99.90;;;;;;6280079;22;20160;-95
2021/11/25 12:09:24;;;;;;;44.95;26.65;;;9.20;99.90;;;;;;6280568;22;20181;-92
2021/11/25 12:12:08;;;;;;;39.58;26.17;;;9.20;99.90;;;;;;6280744;22;20188;-95
2021/11/25 12:14:34;;;;;;;40.85;26.35;;;9.20;99.90;;;;;;6282808;22;20168;-94
2021/11/25 12:17:09;;;;;;;45.25;28.13;;;9.20;99.90;;;;;;6289929;22;20160;-96
2021/11/25 12:19:43;;;;;;;42.58;29.15;;;9.20;99.90;;;;;;6290309;22;20167;-94
2021/11/25 12:22:17;;;;;;;40.63;26.52;;;9.20;99.90;;;;;;6294467;22;20160;-96
2021/11/25 12:25:01;;;;;;;38.47;26.13;;;9.30;99.90;;;;;;6286027;22;20160;-94
2021/11/25 12:27:33;;;;;;;40.55;27.00;;;9.30;99.90;;;;;;6288582;22;20591;-96
2021/11/25 12:35:18;;;;;;;43.00;26.88;;;9.50;99.90;;;;;;6275530;22;20226;-93
2021/11/25 12:37:58;;;;;;;38.50;26.85;;;9.50;99.90;;;;;;6279043;22;20210;-95
2021/11/25 12:40:32;;;;;;;45.30;28.25;;;9.50;99.90;;;;;;6280523;22;20174;-95
2021/11/25 12:43:04;;;;;;;42.72;24.85;;;9.50;99.90;;;;;;6279792;22;20250;-96
2021/11/25 12:45:50;;;;;;;33.58;22.83;;;9.50;99.90;;;;;;6272500;22;20609;-94
2021/11/25 12:48:24;;;;;;;38.50;24.25;;;9.50;99.90;;;;;;6276640;22;20222;-94
2021/11/25 12:51:05;;;;;;;43.05;27.65;;;9.50;99.90;;;;;;6290768;22;20187;-96
2021/11/25 12:53:57;;;;;;;39.25;25.70;;;9.50;99.90;;;;;;6291449;22;20245;-96
2021/11/25 12:56:39;;;;;;;36.78;26.65;;;9.50;99.90;;;;;;6276940;22;20156;-93
2021/11/25 12:59:09;;;;;;;44.42;28.42;;;9.50;99.90;;;;;;6281426;22;20272;-95
2021/11/25 13:01:46;;;;;;;41.25;27.58;;;9.50;99.90;;;;;;6277876;22;20160;-96
2021/11/25 13:04:19;;;;;;;36.78;25.75;;;9.50;99.90;;;;;;6279744;22;20184;-96
2021/11/25 13:06:56;;;;;;;37.83;26.40;;;9.50;99.90;;;;;;6280209;22;20226;-96
2021/11/25 13:09:43;;;;;;;40.67;25.40;;;9.50;99.90;;;;;;6276804;22;20170;-94
2021/11/25 13:12:15;;;;;;;40.42;26.75;;;9.50;99.90;;;;;;6277708;22;20656;-95
2021/11/25 13:14:41;;;;;;;38.08;26.75;;;9.60;99.90;;;;;;6274652;22;20164;-94
2021/11/25 13:17:15;;;;;;;41.38;27.23;;;9.60;99.90;;;;;;6276719;22;20170;-95
2021/11/25 13:19:44;;;;;;;39.33;26.30;;;9.60;99.90;;;;;;6275495;22;20148;-96
2021/11/25 13:22:16;;;;;;;37.72;24.40;;;9.60;99.90;;;;;;6267878;22;20230;-96
2021/11/25 13:24:48;;;;;;;37.15;23.88;;;9.60;99.90;;;;;;6267175;22;20530;-96
2021/11/25 13:27:16;;;;;;;40.00;24.90;;;9.60;99.90;;;;;;6285200;22;20204;-94
2021/11/25 13:29:52;;;;;;;39.25;25.85;;;9.60;99.90;;;;;;6273707;22;20791;-95
2021/11/25 13:34:53;;;;;;;41.35;25.70;;;9.60;99.90;;;;;;6197610;23;20205;-71
2021/11/25 13:37:31;;;;;;;39.38;25.20;;;9.60;99.90;;;;;;6174539;23;20166;-71
2021/11/25 13:39:59;;;;;;;38.33;25.45;;;9.60;99.90;;;;;;6196926;23;20240;-70
2021/11/25 13:42:37;;;;;;;40.05;26.92;;;9.60;99.90;;;;;;6198138;23;20550;-72
2021/11/25 13:45:09;;;;;;;39.55;25.60;;;9.60;99.90;;;;;;6166275;23;20821;-72
2021/11/25 13:47:38;;;;;;;37.00;25.23;;;9.70;99.90;;;;;;6198109;23;20243;-71
2021/11/25 13:50:10;;;;;;;40.67;25.92;;;9.70;99.90;;;;;;6178725;23;20500;-70
2021/11/25 13:52:37;;;;;;;42.75;26.70;;;9.70;99.90;;;;;;6184918;23;20206;-70
2021/11/25 13:55:12;;;;;;;47.03;30.60;;;9.70;99.90;;;;;;6186477;23;20164;-71
2021/11/25 13:57:46;;;;;;;57.22;34.47;;;9.70;99.90;;;;;;6187518;23;20192;-71
2021/11/25 14:00:54;;;;;;;41.97;28.65;;;9.80;99.90;;;;;;6186660;23;20642;-70
2021/11/25 14:03:53;;;;;;;44.83;27.23;;;9.80;99.90;;;;;;6210956;23;20190;-70
2021/11/25 14:06:37;;;;;;;39.53;26.52;;;9.70;99.90;;;;;;6183922;23;20165;-71
2021/11/25 14:09:21;;;;;;;46.05;28.33;;;9.70;99.90;;;;;;6175707;23;20193;-71
2021/11/25 14:12:06;;;;;;;51.72;33.10;;;9.80;99.90;;;;;;6179777;23;20185;-72
2021/11/25 14:14:40;;;;;;;46.90;30.55;;;9.80;99.90;;;;;;6181632;23;20158;-71
2021/11/25 14:20:50;;;;;;;37.55;25.45;;;9.90;99.90;;;;;;6212830;23;20150;-71
2021/11/25 14:30:27;;;;;;;43.88;29.80;;;9.80;99.90;;;;;;6206658;22;20464;-71
2021/11/25 14:33:06;;;;;;;39.90;28.00;;;9.80;99.90;;;;;;6180341;23;20239;-70
2021/11/25 14:35:43;;;;;;;39.22;27.17;;;9.80;99.90;;;;;;6185635;23;20241;-71
2021/11/25 14:38:26;;;;;;;42.05;29.73;;;9.80;99.90;;;;;;6186286;23;20185;-69
2021/11/25 14:41:00;;;;;;;37.83;32.00;;;9.80;99.90;;;;;;6210341;23;20471;-69
2021/11/25 14:44:07;;;;;;;38.85;26.00;;;9.80;99.90;;;;;;6187646;23;20189;-70
2021/11/25 14:46:37;;;;;;;46.72;32.45;;;9.80;99.90;;;;;;6214122;23;20156;-72
2021/11/25 14:49:32;;;;;;;50.33;40.35;;;9.80;99.90;;;;;;6213196;23;20236;-70
2021/11/25 14:52:21;;;;;;;40.85;28.02;;;9.70;99.90;;;;;;6215865;23;20599;-70
2021/11/25 14:55:12;;;;;;;42.63;27.27;;;9.70;99.90;;;;;;6185281;23;20158;-71
2021/11/25 14:57:41;;;;;;;42.03;26.42;;;9.70;99.90;;;;;;6186111;23;20194;-69
2021/11/25 15:00:18;;;;;;;45.22;29.35;;;9.70;99.90;;;;;;6184926;23;20180;-71
2021/11/25 15:03:07;;;;;;;58.78;36.38;;;9.60;99.90;;;;;;6187458;23;20243;-68
2021/11/25 15:05:45;;;;;;;61.05;37.42;;;9.60;99.90;;;;;;6186247;23;20168;-71
2021/11/25 15:08:25;;;;;;;58.95;35.47;;;9.60;99.90;;;;;;6185590;23;20289;-70
2021/11/25 15:11:06;;;;;;;60.90;39.13;;;9.50;99.90;;;;;;6184459;23;20157;-69
2021/11/25 15:13:35;;;;;;;70.30;42.63;;;9.50;99.90;;;;;;6208171;23;20193;-70
2021/11/25 15:16:06;;;;;;;66.18;41.53;;;9.50;99.90;;;;;;6183612;23;20154;-70
2021/11/25 15:18:37;;;;;;;56.97;40.05;;;9.50;99.90;;;;;;6184020;23;20190;-71
2021/11/25 15:21:07;;;;;;;58.55;40.20;;;9.40;99.90;;;;;;6181504;23;20228;-70
2021/11/25 15:23:36;;;;;;;46.35;33.03;;;9.40;99.90;;;;;;6179495;23;20235;-70
2021/11/25 15:26:10;;;;;;;46.78;33.17;;;9.40;99.90;;;;;;6206296;23;20180;-71
2021/11/25 15:28:39;;;;;;;39.78;28.27;;;9.30;99.90;;;;;;6206398;23;20212;-71
2021/11/25 15:31:06;;;;;;;53.42;36.50;;;9.30;99.90;;;;;;6236194;22;20171;-73
2021/11/25 15:33:35;;;;;;;62.00;42.97;;;9.20;99.90;;;;;;6237457;23;20637;-70
2021/11/25 15:36:08;;;;;;;77.47;51.47;;;9.20;99.90;;;;;;6238493;22;20203;-72
2021/11/25 15:38:38;;;;;;;78.38;51.25;;;9.20;99.90;;;;;;6240730;23;20276;-73
2021/11/25 15:41:22;;;;;;;88.75;55.40;;;9.10;99.90;;;;;;6241004;23;20161;-70
2021/11/25 15:44:10;;;;;;;75.70;48.10;;;9.10;99.90;;;;;;6239447;23;20193;-69
2021/11/25 15:46:39;;;;;;;76.80;54.13;;;9.00;99.90;;;;;;6238999;23;20161;-70
2021/11/25 15:49:12;;;;;;;107.63;67.18;;;9.00;99.90;;;;;;6239225;23;20232;-70
2021/11/25 15:51:38;;;;;;;138.35;83.03;;;8.90;99.90;;;;;;6241869;23;20200;-69
2021/11/25 15:54:08;;;;;;;119.57;68.97;;;8.90;99.90;;;;;;6240887;22;20221;-71
2021/11/25 15:56:37;;;;;;;105.60;59.13;;;8.80;99.90;;;;;;6238941;22;20161;-69
2021/11/25 15:59:05;;;;;;;93.03;54.85;;;8.80;99.90;;;;;;6239812;23;20637;-69
2021/11/25 16:01:38;;;;;;;93.00;55.85;;;8.70;99.90;;;;;;6241838;22;20250;-69
2021/11/25 16:04:15;;;;;;;122.57;70.57;;;8.70;99.90;;;;;;6238295;23;20496;-70
2021/11/25 16:06:55;;;;;;;105.90;61.40;;;8.60;99.90;;;;;;6240206;23;20495;-69
2021/11/25 16:09:21;;;;;;;74.30;50.22;;;8.60;99.90;;;;;;6238782;23;20189;-70
2021/11/25 16:11:54;;;;;;;70.03;48.53;;;8.50;99.90;;;;;;6238424;22;20275;-72
2021/11/25 16:14:43;;;;;;;70.38;48.78;;;8.40;99.90;;;;;;6237457;23;20192;-71
2021/11/25 16:17:23;;;;;;;74.68;48.75;;;8.40;99.90;;;;;;6235094;22;20166;-71
2021/11/25 16:20:11;;;;;;;58.10;41.17;;;8.30;99.90;;;;;;6238044;22;20152;-69
2021/11/25 16:22:38;;;;;;;56.67;37.75;;;8.30;99.90;;;;;;6237586;23;20216;-71
2021/11/25 16:25:15;;;;;;;57.40;36.47;;;8.30;99.90;;;;;;6239693;23;20161;-70
2021/11/25 16:28:09;;;;;;;68.07;40.03;;;8.20;99.90;;;;;;6236159;23;20189;-69
2021/11/25 16:30:45;;;;;;;81.97;49.95;;;8.20;99.90;;;;;;6185177;23;20174;-70
2021/11/25 16:33:25;;;;;;;91.50;59.13;;;8.10;99.90;;;;;;6186382;23;20201;-70
2021/11/25 16:35:54;;;;;;;178.57;82.20;;;8.10;99.90;;;;;;6210478;23;20216;-70
2021/11/25 16:38:21;;;;;;;239.30;99.00;;;8.00;99.90;;;;;;6186280;23;20252;-70
2021/11/25 16:40:54;;;;;;;224.60;94.20;;;8.00;99.90;;;;;;6213606;23;20161;-70
2021/11/25 16:43:22;;;;;;;219.30;93.00;;;8.00;99.90;;;;;;6212440;23;20268;-69
2021/11/25 16:45:57;;;;;;;216.13;87.22;;;7.90;99.90;;;;;;6185913;23;20158;-71
2021/11/25 16:49:10;;;;;;;160.90;74.93;;;7.90;99.90;;;;;;6186836;23;20323;-68
2021/11/25 16:51:58;;;;;;;137.07;69.63;;;7.90;99.90;;;;;;6214117;23;20189;-71
2021/11/25 16:54:31;;;;;;;135.05;103.68;;;7.90;99.90;;;;;;6187723;23;20189;-71
2021/11/25 16:57:01;;;;;;;120.65;85.57;;;7.90;99.90;;;;;;6214703;23;20158;-72
2021/11/25 16:59:41;;;;;;;113.40;76.43;;;7.80;99.90;;;;;;6189236;23;20316;-70
2021/11/25 17:02:20;;;;;;;100.10;55.20;;;7.80;99.90;;;;;;6214235;23;20189;-69
2021/11/25 17:05:03;;;;;;;106.40;62.72;;;7.80;99.90;;;;;;6187720;23;20590;-72
2021/11/25 17:07:52;;;;;;;82.50;49.55;;;7.80;99.90;;;;;;6213508;23;20181;-69
2021/11/25 17:10:38;;;;;;;89.18;61.50;;;7.80;99.90;;;;;;6187025;23;20161;-71
2021/11/25 17:13:45;;;;;;;88.88;58.28;;;7.70;99.90;;;;;;6186914;23;20292;-69
2021/11/25 17:16:34;;;;;;;86.90;65.43;;;7.70;99.90;;;;;;6209569;23;20538;-69
2021/11/25 17:19:05;;;;;;;88.25;55.70;;;7.70;99.90;;;;;;6185657;23;20271;-70
2021/11/25 17:21:35;;;;;;;120.90;97.78;;;7.70;99.90;;;;;;6186739;23;20460;-71
2021/11/25 17:24:03;;;;;;;121.97;94.18;;;7.70;99.90;;;;;;6187872;23;20498;-70
2021/11/25 17:26:33;;;;;;;84.55;57.95;;;7.70;99.90;;;;;;6187795;23;20538;-69
2021/11/25 17:29:01;;;;;;;73.15;56.72;;;7.70;99.90;;;;;;6220925;22;20251;-69
2021/11/25 17:31:27;;;;;;;84.93;68.95;;;7.70;99.90;;;;;;6244976;22;20153;-70
2021/11/25 17:33:54;;;;;;;72.63;56.00;;;7.70;99.90;;;;;;6245251;23;20196;-70
2021/11/25 17:36:24;;;;;;;75.93;50.42;;;7.70;99.90;;;;;;6245646;23;20158;-69
2021/11/25 17:38:52;;;;;;;68.93;47.72;;;7.70;99.90;;;;;;6241565;22;20189;-70
2021/11/25 17:42:06;;;;;;;59.78;41.60;;;7.70;99.90;;;;;;6245925;23;20161;-70
2021/11/25 17:44:38;;;;;;;57.85;39.15;;;7.70;99.90;;;;;;6217693;22;20217;-87
2021/11/25 17:47:04;;;;;;;58.00;39.10;;;7.80;99.90;;;;;;6191545;23;20162;-96
2021/11/25 17:49:31;;;;;;;59.72;39.03;;;7.80;99.90;;;;;;6189435;23;20158;-95
2021/11/25 17:51:58;;;;;;;53.95;37.10;;;7.80;99.90;;;;;;6188880;23;20196;-96
2021/11/25 17:54:24;;;;;;;52.92;33.00;;;7.80;99.90;;;;;;6217789;23;20165;-94
2021/11/25 17:56:50;;;;;;;54.10;34.40;;;7.80;99.90;;;;;;6194137;23;20165;-86
2021/11/25 17:59:15;;;;;;;48.87;32.33;;;7.80;99.90;;;;;;6189302;23;20261;-87
2021/11/25 18:01:42;;;;;;;44.60;34.67;;;7.80;99.90;;;;;;6189192;23;20399;-86
2021/11/25 18:04:07;;;;;;;43.35;30.33;;;7.80;99.90;;;;;;6189412;23;20389;-87
2021/11/25 18:06:33;;;;;;;43.47;30.23;;;7.80;99.90;;;;;;6189232;23;20166;-86
2021/11/25 18:08:59;;;;;;;43.07;27.80;;;7.80;99.90;;;;;;6219690;23;20169;-88
2021/11/25 18:11:25;;;;;;;41.07;26.73;;;7.80;99.90;;;;;;6196678;23;20162;-86
2021/11/25 18:13:51;;;;;;;33.50;24.95;;;7.80;99.90;;;;;;6199781;23;20233;-95
2021/11/25 18:16:17;;;;;;;38.67;24.40;;;7.80;99.90;;;;;;6206663;23;20158;-86
2021/11/25 18:18:43;;;;;;;35.17;23.70;;;7.80;99.90;;;;;;6225672;23;20402;-86
2021/11/25 18:21:09;;;;;;;35.57;25.10;;;7.80;99.90;;;;;;6193089;23;20621;-88
2021/11/25 18:23:39;;;;;;;37.17;23.13;;;7.90;99.90;;;;;;6198882;23;20430;-96
2021/11/25 18:26:25;;;;;;;34.38;23.05;;;7.90;99.90;;;;;;6216165;23;20401;-86
2021/11/25 18:28:53;;;;;;;34.40;23.02;;;7.90;99.90;;;;;;6225518;23;20173;-95
2021/11/25 18:31:19;;;;;;;30.23;22.77;;;7.90;99.90;;;;;;6225047;23;20480;-86
2021/11/25 18:33:47;;;;;;;30.05;21.95;;;7.90;99.90;;;;;;6217602;23;20177;-96
2021/11/25 18:36:16;;;;;;;32.15;22.27;;;7.90;99.90;;;;;;6218419;23;20157;-94
2021/11/25 18:38:42;;;;;;;33.50;21.40;;;7.90;99.90;;;;;;6217057;23;20256;-95
2021/11/25 18:41:08;;;;;;;47.17;25.90;;;7.90;99.90;;;;;;6190419;23;20185;-87
2021/11/25 18:43:34;;;;;;;42.08;25.90;;;7.90;99.90;;;;;;6218378;22;20224;-95
2021/11/25 18:46:01;;;;;;;40.85;24.92;;;7.90;99.90;;;;;;6247462;22;20207;-92
2021/11/25 18:48:31;;;;;;;37.22;24.45;;;8.00;99.90;;;;;;6248161;22;20247;-95
2021/11/25 18:50:57;;;;;;;30.50;19.40;;;8.00;99.90;;;;;;6246264;22;20172;-86
2021/11/25 18:53:24;;;;;;;29.80;21.40;;;7.90;99.90;;;;;;6247484;22;20267;-86
2021/11/25 18:55:51;;;;;;;30.08;22.23;;;8.00;99.90;;;;;;6246107;22;20211;-95
2021/11/25 18:58:21;;;;;;;56.70;47.72;;;8.00;99.90;;;;;;6247657;22;20630;-87
2021/11/25 19:00:48;;;;;;;38.30;29.73;;;8.00;99.90;;;;;;6247774;22;20157;-95
2021/11/25 19:03:15;;;;;;;29.85;22.33;;;8.00;99.90;;;;;;6246617;22;20176;-94